This is the latest recevied weather packets stored in our database for station/object EA5JPW-10. If no packets are shown the sender has not sent any weather packets the latest 10 day(s).
| Time | Temp. | Humidity | Pressure | Rain* | Wind** | Luminosity | Snow |
|---|---|---|---|---|---|---|---|
| 1777640649 | 38.33° C | 33% | 1001.4 hPa | - | - | - | - |
| 1777639749 | 30° C | 41% | 999.2 hPa | - | - | - | - |
| 1777638849 | 28.33° C | 41% | 998.8 hPa | - | - | - | - |
| 1777637949 | 26.67° C | 43% | 999.7 hPa | - | - | - | - |
| 1777637048 | 26.11° C | 43% | 999.4 hPa | - | - | - | - |
| 1777636148 | 26.11° C | 44% | 998.9 hPa | - | - | - | - |
| 1777635247 | 30.56° C | 40% | 998.6 hPa | - | - | - | - |
| 1777634347 | 31.67° C | 39% | 1002.4 hPa | - | - | - | - |
| 1777633447 | 25.56° C | 43% | 999.6 hPa | - | - | - | - |
| 1777632547 | 24.44° C | 44% | 999.6 hPa | - | - | - | - |
| 1777631646 | 26.11° C | 42% | 999.5 hPa | - | - | - | - |
| 1777630746 | 24.44° C | 44% | 1000 hPa | - | - | - | - |
| 1777629846 | 25.56° C | 43% | 999.4 hPa | - | - | - | - |
| 1777628946 | 24.44° C | 44% | 1000.2 hPa | - | - | - | - |
| 1777628046 | 23.89° C | 44% | 1000.3 hPa | - | - | - | - |
| 1777627145 | 22.78° C | 45% | 999.9 hPa | - | - | - | - |
| 1777626245 | 22.78° C | 45% | 999.7 hPa | - | - | - | - |
| 1777625345 | 22.22° C | 45% | 999.5 hPa | - | - | - | - |
| 1777624445 | 22.78° C | 45% | 999.3 hPa | - | - | - | - |
| 1777623545 | 22.22° C | 44% | 999.2 hPa | - | - | - | - |
| 1777622644 | 21.11° C | 45% | 997.8 hPa | - | - | - | - |
| 1777621749 | 21.67° C | 45% | 998.5 hPa | - | - | - | - |
| 1777620849 | 22.78° C | 44% | 998.4 hPa | - | - | - | - |
| 1777619949 | 21.67° C | 44% | 998.4 hPa | - | - | - | - |
| 1777619049 | 21.67° C | 45% | 998.2 hPa | - | - | - | - |
* Rain since midnight (hover to see other rain measurements)
** Current wind speed in m/s (hover to see current wind gust speed)